Time;durP1;ratioP1;P1;durP2;ratioP2;P2;SDS_P1;SDS_P2;PMS_P1;PMS_P2;Temp;Humidity;BMP_temperature;BMP_pressure;BME280_temperature;BME280_humidity;BME280_pressure;Samples;Min_cycle;Max_cycle;Signal;HPM_P1;HPM_P2
2023/02/22 00:00:23;;;;;;;24.50;11.95;;;;;;;10.47;42.48;94609.88;4194863;28;20045;-58
2023/02/22 00:02:27;;;;;;;21.98;12.07;;;;;;;10.48;42.30;94607.13;4195151;28;20105;-54
2023/02/22 00:04:29;;;;;;;25.30;12.63;;;;;;;10.49;42.29;94608.75;4180614;28;20052;-54
2023/02/22 00:06:31;;;;;;;24.25;12.18;;;;;;;10.54;42.37;94614.34;4178752;28;20678;-54
2023/02/22 00:08:35;;;;;;;24.38;12.70;;;;;;;10.55;42.30;94612.53;4189603;28;20045;-54
2023/02/22 00:10:37;;;;;;;22.92;12.55;;;;;;;10.57;42.43;94621.88;4192206;28;20055;-51
2023/02/22 00:12:42;;;;;;;27.80;12.88;;;;;;;10.57;42.59;94621.06;4182114;28;20095;-51
2023/02/22 00:14:43;;;;;;;25.20;12.68;;;;;;;10.54;42.81;94622.19;4194936;28;20056;-51
2023/02/22 00:16:45;;;;;;;23.35;13.25;;;;;;;10.51;42.58;94617.25;4195815;28;20049;-51
2023/02/22 00:18:47;;;;;;;21.98;11.77;;;;;;;10.41;42.75;94616.56;4196412;28;20504;-53
2023/02/22 00:20:49;;;;;;;24.63;13.10;;;;;;;10.39;42.46;94622.00;4197475;28;20084;-55
2023/02/22 00:22:50;;;;;;;24.98;13.73;;;;;;;10.40;43.13;94612.34;4194934;28;20048;-53
2023/02/22 00:24:52;;;;;;;21.33;11.75;;;;;;;10.39;43.03;94618.53;4208853;28;20451;-54
2023/02/22 00:26:54;;;;;;;24.45;13.90;;;;;;;10.39;43.10;94618.53;4191536;28;20052;-50
2023/02/22 00:28:56;;;;;;;24.10;13.27;;;;;;;10.41;42.71;94616.56;4202193;28;20083;-54
2023/02/22 00:30:58;;;;;;;24.77;13.10;;;;;;;10.34;42.90;94618.19;4192642;28;20049;-53
2023/02/22 00:33:00;;;;;;;23.70;13.50;;;;;;;10.30;43.29;94614.25;4199746;28;20601;-51
2023/02/22 00:35:07;;;;;;;24.92;12.90;;;;;;;10.25;42.86;94612.09;4204423;28;20048;-53
2023/02/22 00:37:10;;;;;;;24.83;12.63;;;;;;;10.22;42.93;94602.75;4183495;28;20053;-54
2023/02/22 00:39:11;;;;;;;21.42;12.85;;;;;;;10.23;43.33;94609.63;4194973;28;20129;-54
2023/02/22 00:41:13;;;;;;;21.50;10.93;;;;;;;10.16;43.27;94598.16;4186825;28;20140;-52
2023/02/22 00:43:15;;;;;;;19.95;11.55;;;;;;;10.17;43.54;94599.78;4201786;28;20444;-52
2023/02/22 00:45:20;;;;;;;19.48;10.90;;;;;;;10.19;42.87;94597.84;4210915;28;20047;-55
2023/02/22 00:47:22;;;;;;;18.90;10.18;;;;;;;10.17;42.88;94598.97;4206770;28;20056;-53
2023/02/22 00:49:24;;;;;;;20.15;10.48;;;;;;;10.16;43.06;94587.69;4196998;28;20055;-52
2023/02/22 00:51:27;;;;;;;26.30;10.88;;;;;;;10.16;43.19;94585.06;4187142;28;20049;-53
2023/02/22 00:53:29;;;;;;;22.45;10.77;;;;;;;10.16;43.06;94587.69;4187616;28;20044;-55
2023/02/22 00:55:33;;;;;;;22.25;10.90;;;;;;;10.16;43.42;94586.88;4212130;28;20093;-51
2023/02/22 00:57:35;;;;;;;24.05;11.63;;;;;;;10.15;43.14;94586.06;4202496;28;20486;-54
2023/02/22 00:59:36;;;;;;;20.55;11.20;;;;;;;10.19;43.15;94584.75;4208814;28;20044;-53
2023/02/22 01:01:38;;;;;;;17.95;10.68;;;;;;;10.22;43.72;94578.38;4184041;28;20502;-58
2023/02/22 01:03:40;;;;;;;19.25;10.77;;;;;;;10.24;43.57;94582.47;4211472;28;20655;-51
2023/02/22 01:05:42;;;;;;;19.73;11.00;;;;;;;10.23;43.18;94578.22;4212341;28;20048;-55
2023/02/22 01:07:44;;;;;;;22.65;10.68;;;;;;;10.20;43.03;94581.16;4196189;28;20131;-58
2023/02/22 01:09:46;;;;;;;16.33;10.40;;;;;;;10.23;43.44;94578.22;4187923;28;20417;-56
2023/02/22 01:11:54;;;;;;;18.67;11.02;;;;;;;10.18;43.35;94574.44;4212418;28;20052;-59
2023/02/22 01:13:56;;;;;;;18.10;11.20;;;;;;;10.16;43.58;94571.16;4211923;28;20414;-57
2023/02/22 01:15:59;;;;;;;20.52;10.05;;;;;;;10.21;43.46;94572.31;4210827;28;20062;-59
2023/02/22 01:18:01;;;;;;;18.42;9.88;;;;;;;10.24;43.19;94564.16;4205020;28;20072;-57
2023/02/22 01:20:13;;;;;;;18.35;9.63;;;;;;;10.28;43.01;94571.69;4188912;28;20083;-57
2023/02/22 01:22:15;;;;;;;18.75;10.07;;;;;;;10.30;43.20;94564.50;4209167;28;20399;-59
2023/02/22 01:24:17;;;;;;;19.85;10.50;;;;;;;10.34;43.37;94565.84;4192652;28;20132;-58
2023/02/22 01:26:19;;;;;;;19.25;9.40;;;;;;;10.36;43.10;94564.69;4198626;28;20669;-54
2023/02/22 01:28:21;;;;;;;18.58;10.27;;;;;;;10.34;42.95;94555.38;4195563;28;20525;-52
2023/02/22 01:30:29;;;;;;;20.63;11.25;;;;;;;10.21;43.14;94561.84;4206748;28;20059;-58
2023/02/22 01:32:32;;;;;;;23.77;12.65;;;;;;;10.05;43.81;94561.81;4196150;28;20047;-58
2023/02/22 01:34:34;;;;;;;25.48;12.93;;;;;;;9.90;44.21;94555.56;4191005;28;20048;-57
2023/02/22 01:36:35;;;;;;;23.90;12.85;;;;;;;9.60;45.15;94561.16;4193051;28;20048;-56
2023/02/22 01:38:38;;;;;;;26.20;13.07;;;;;;;9.36;45.35;94564.47;4185184;28;20163;-59
2023/02/22 01:40:42;;;;;;;24.40;13.68;;;;;;;9.20;45.39;94567.78;4182918;28;20043;-59
2023/02/22 01:42:43;;;;;;;20.98;11.05;;;;;;;8.96;46.84;94567.63;4194354;28;20049;-58
2023/02/22 01:44:45;;;;;;;21.52;11.05;;;;;;;8.77;47.47;94568.63;4189366;28;20094;-59
2023/02/22 01:46:47;;;;;;;25.38;12.13;;;;;;;8.65;46.91;94568.03;4186602;28;20144;-54
2023/02/22 01:48:57;;;;;;;9.15;5.53;;;;;;;8.66;46.22;94566.25;4182404;28;20052;-57
2023/02/22 01:51:09;;;;;;;7.53;4.07;;;;;;;8.49;46.41;94570.50;4202915;28;20045;-53
2023/02/22 01:53:14;;;;;;;9.88;5.07;;;;;;;8.27;47.08;94575.16;4183415;28;20399;-52
2023/02/22 01:55:16;;;;;;;8.80;4.70;;;;;;;8.39;47.15;94571.38;4181733;28;20165;-55
2023/02/22 01:57:28;;;;;;;8.57;4.80;;;;;;;8.63;46.33;94569.16;4190894;28;20821;-53
2023/02/22 01:59:32;;;;;;;6.82;3.95;;;;;;;8.82;45.50;94567.19;4196440;28;20604;-56
2023/02/22 02:01:35;;;;;;;9.32;4.10;;;;;;;9.03;44.95;94563.41;4185350;28;20617;-53
2023/02/22 02:03:38;;;;;;;9.43;4.07;;;;;;;9.20;45.32;94564.34;4196146;28;20056;-55
2023/02/22 02:05:41;;;;;;;9.00;4.78;;;;;;;9.33;44.06;94562.13;4195322;28;20045;-50
2023/02/22 02:07:45;;;;;;;10.27;4.68;;;;;;;9.43;43.83;94570.69;4183844;28;20048;-54
2023/02/22 02:09:53;;;;;;;6.75;3.88;;;;;;;9.50;44.30;94567.47;4190975;28;20049;-51
2023/02/22 02:11:59;;;;;;;9.57;4.28;;;;;;;9.44;43.76;94574.13;4192172;28;20088;-55
2023/02/22 02:14:01;;;;;;;7.65;4.03;;;;;;;9.33;44.16;94564.75;4197960;28;20050;-54
2023/02/22 02:16:03;;;;;;;8.52;4.57;;;;;;;9.28;44.51;94572.25;4197234;28;20052;-51
2023/02/22 02:18:09;;;;;;;10.70;5.10;;;;;;;9.26;45.07;94566.34;4197173;28;20086;-54
2023/02/22 02:20:34;;;;;;;8.63;4.72;;;;;;;9.26;44.59;94565.53;4184936;28;20075;-54
2023/02/22 02:22:46;;;;;;;;;;;;;;;9.09;45.05;94568.03;4182367;28;20152;-58
2023/02/22 02:25:23;;;;;;;9.30;4.35;;;;;;;9.06;44.96;94572.78;4191868;28;19920;-57
2023/02/22 02:27:31;;;;;;;12.60;5.25;;;;;;;9.07;45.92;94579.63;4191221;28;20060;-58
2023/02/22 02:29:57;;;;;;;11.30;5.63;;;;;;;9.05;45.88;94577.16;4191253;28;20061;-59
2023/02/22 02:32:04;;;;;;;15.63;6.70;;;;;;;8.77;46.15;94577.25;4196609;28;20087;-59
2023/02/22 02:34:21;;;;;;;12.95;6.40;;;;;;;8.52;46.83;94581.47;4200147;28;20052;-58
2023/02/22 02:36:36;;;;;;;9.77;6.35;;;;;;;8.62;47.49;94576.16;4207184;28;20076;-57
2023/02/22 02:38:48;;;;;;;9.63;6.43;;;;;;;8.36;47.59;94583.88;4207911;28;20083;-59
2023/02/22 02:41:04;;;;;;;12.52;6.90;;;;;;;8.45;48.25;94588.25;4210964;28;20127;-57
2023/02/22 02:43:32;;;;;;;14.23;7.22;;;;;;;8.60;47.08;94589.38;4208616;28;20060;-56
2023/02/22 02:45:50;;;;;;;11.05;6.72;;;;;;;8.80;47.67;94584.00;4188104;28;20502;-58
2023/02/22 02:47:57;;;;;;;10.15;6.38;;;;;;;8.89;46.84;94580.47;4200239;28;20057;-58
2023/02/22 02:50:02;;;;;;;11.13;6.35;;;;;;;8.96;46.92;94591.94;4206531;28;20060;-58
2023/02/22 02:52:04;;;;;;;13.55;6.32;;;;;;;8.97;47.26;94585.78;4204181;28;20053;-58
2023/02/22 02:54:07;;;;;;;12.00;6.57;;;;;;;9.03;46.78;94589.53;4203220;28;20052;-58
2023/02/22 02:56:09;;;;;;;16.40;6.57;;;;;;;9.01;46.34;94592.34;4180490;28;20110;-56
2023/02/22 02:58:19;;;;;;;15.45;8.07;;;;;;;9.07;46.13;94592.69;4198568;28;20048;-58
2023/02/22 03:00:24;;;;;;;14.27;7.25;;;;;;;9.11;46.99;94596.63;4197668;28;20040;-57
2023/02/22 03:02:46;;;;;;;11.63;7.80;;;;;;;9.10;47.05;94587.13;4195483;28;20067;-56
2023/02/22 03:05:16;;;;;;;15.70;7.78;;;;;;;9.05;47.59;94590.22;4181458;28;20083;-55
2023/02/22 03:07:46;;;;;;;14.60;8.07;;;;;;;9.01;46.75;94592.34;4191658;28;20051;-58
2023/02/22 03:10:32;;;;;;;18.70;8.00;;;;;;;8.93;47.14;94592.25;4190370;28;20170;-59
2023/02/22 03:12:36;;;;;;;16.70;8.35;;;;;;;8.89;47.65;94590.94;4198745;28;20560;-57
2023/02/22 03:14:59;;;;;;;18.75;9.05;;;;;;;8.90;47.24;94599.56;4187946;28;20426;-58
2023/02/22 03:17:07;;;;;;;14.73;8.75;;;;;;;8.87;47.19;94600.69;4184317;28;20044;-56
2023/02/22 03:19:21;;;;;;;16.73;8.40;;;;;;;8.88;47.55;94588.44;4206964;28;20131;-57
2023/02/22 03:21:22;;;;;;;13.55;7.68;;;;;;;8.92;47.64;94587.19;4194277;28;20049;-58
2023/02/22 03:23:37;;;;;;;14.48;7.90;;;;;;;8.93;47.65;94589.66;4196662;28;20671;-57
2023/02/22 03:25:49;;;;;;;;;;;;;;;9.01;47.00;94584.50;4181037;28;20161;-57
2023/02/22 03:27:54;;;;;;;10.35;5.35;;;;;;;9.01;46.96;94588.88;4179408;28;20364;-60
2023/02/22 03:30:00;;;;;;;11.45;6.22;;;;;;;8.98;46.41;94582.16;4190761;28;20102;-57
2023/02/22 03:32:07;;;;;;;9.93;5.72;;;;;;;9.00;46.39;94582.03;4191912;28;20713;-62
2023/02/22 03:34:33;;;;;;;9.40;5.38;;;;;;;8.98;46.68;94583.97;4199377;28;20044;-55
2023/02/22 03:36:54;;;;;;;8.18;4.88;;;;;;;9.02;46.37;94586.13;4195018;28;20048;-57
2023/02/22 03:38:58;;;;;;;10.25;5.53;;;;;;;9.02;46.25;94586.13;4205724;28;20052;-59
2023/02/22 03:41:01;;;;;;;9.85;4.88;;;;;;;9.07;46.16;94590.06;4209999;28;20052;-58
2023/02/22 03:43:06;;;;;;;10.27;5.22;;;;;;;9.08;46.42;94586.47;4211022;28;20048;-58
2023/02/22 03:45:09;;;;;;;10.18;5.35;;;;;;;9.11;46.30;94584.38;4205459;28;20040;-57
2023/02/22 03:47:15;;;;;;;13.98;5.18;;;;;;;9.17;45.94;94582.97;4207051;28;20052;-58
2023/02/22 03:49:30;;;;;;;15.52;6.25;;;;;;;9.21;46.05;94586.91;4200162;28;20076;-54
2023/02/22 03:51:32;;;;;;;15.90;8.40;;;;;;;9.25;46.19;94592.63;4206292;28;20391;-56
2023/02/22 03:53:36;;;;;;;11.95;6.00;;;;;;;9.31;45.51;94587.63;4200171;28;20541;-57
2023/02/22 03:55:37;;;;;;;15.00;6.78;;;;;;;9.32;46.04;94589.28;4209607;28;20048;-60
2023/02/22 03:57:42;;;;;;;11.93;6.15;;;;;;;9.32;45.83;94585.84;4209176;28;20048;-58
2023/02/22 03:59:44;;;;;;;13.82;6.38;;;;;;;9.30;46.54;94586.00;4211117;28;20091;-56
2023/02/22 04:01:45;;;;;;;17.52;6.20;;;;;;;9.31;45.98;94585.00;4212215;28;20121;-55
2023/02/22 04:03:47;;;;;;;10.52;5.82;;;;;;;9.31;45.81;94585.00;4211613;28;20055;-56
2023/02/22 04:05:49;;;;;;;14.63;5.80;;;;;;;9.34;45.44;94581.28;4212668;28;20638;-57
2023/02/22 04:07:52;;;;;;;11.50;5.25;;;;;;;9.36;45.94;94582.75;4212251;28;20132;-59
2023/02/22 04:09:53;;;;;;;12.50;5.93;;;;;;;9.35;46.05;94583.72;4212837;28;20155;-58
2023/02/22 04:11:55;;;;;;;16.23;5.82;;;;;;;9.34;46.05;94584.72;4212545;28;20088;-59
2023/02/22 04:13:57;;;;;;;12.35;5.88;;;;;;;9.37;46.04;94587.00;4196113;28;20080;-57
2023/02/22 04:15:58;;;;;;;13.68;6.07;;;;;;;9.28;46.31;94587.94;4211715;28;20040;-59
2023/02/22 04:18:00;;;;;;;11.32;4.47;;;;;;;9.27;45.50;94581.06;4211868;28;20060;-58
2023/02/22 04:20:03;;;;;;;8.98;4.30;;;;;;;9.30;45.48;94579.94;4212811;28;20671;-58
2023/02/22 04:22:05;;;;;;;10.05;4.50;;;;;;;9.26;45.82;94576.81;4210072;28;20074;-52
2023/02/22 04:24:07;;;;;;;9.60;3.75;;;;;;;9.12;45.98;94579.97;4211329;28;20079;-60
2023/02/22 04:26:08;;;;;;;9.50;4.50;;;;;;;8.90;46.24;94589.94;4212022;28;20063;-59
2023/02/22 04:28:10;;;;;;;17.88;6.72;;;;;;;8.71;47.87;94584.88;4211159;28;20052;-57
2023/02/22 04:30:12;;;;;;;12.82;6.90;;;;;;;8.46;48.44;94592.50;4211033;28;20474;-57
2023/02/22 04:32:14;;;;;;;15.82;6.80;;;;;;;8.10;49.18;94589.81;4194216;28;20040;-58
2023/02/22 04:34:16;;;;;;;11.93;6.78;;;;;;;7.52;50.92;94597.94;4187993;28;20051;-57
2023/02/22 04:36:17;;;;;;;16.30;8.00;;;;;;;7.16;52.30;94600.34;4189707;28;20158;-57
2023/02/22 04:38:19;;;;;;;11.82;7.60;;;;;;;7.21;52.21;94597.34;4209647;28;20535;-56
2023/02/22 04:40:21;;;;;;;14.15;8.18;;;;;;;7.33;52.53;94604.81;4210075;28;20748;-58
2023/02/22 04:42:22;;;;;;;18.08;9.25;;;;;;;7.19;52.61;94602.69;4202839;28;20094;-56
2023/02/22 04:44:24;;;;;;;18.00;9.45;;;;;;;7.37;52.42;94600.16;4212073;28;20051;-57
2023/02/22 04:46:26;;;;;;;21.42;9.88;;;;;;;7.59;51.48;94599.84;4210195;28;20561;-58
2023/02/22 04:48:27;;;;;;;17.98;9.60;;;;;;;7.82;51.24;94596.84;4211333;28;20048;-55
2023/02/22 04:50:29;;;;;;;22.35;10.95;;;;;;;7.88;50.67;94600.66;4212529;28;20052;-55
2023/02/22 04:52:30;;;;;;;21.30;10.50;;;;;;;7.57;51.66;94599.16;4212459;28;20044;-55
2023/02/22 04:54:32;;;;;;;32.55;11.38;;;;;;;7.62;51.74;94592.69;4216412;28;20071;-54
2023/02/22 04:56:34;;;;;;;27.00;11.82;;;;;;;7.71;51.47;94594.44;4217134;28;20052;-52
2023/02/22 04:58:35;;;;;;;19.95;11.15;;;;;;;7.82;51.24;94596.03;4215264;28;20097;-51
2023/02/22 05:00:37;;;;;;;20.70;11.55;;;;;;;7.90;50.96;94590.91;4218064;28;20067;-55
2023/02/22 05:02:39;;;;;;;30.27;11.38;;;;;;;7.99;50.75;94597.84;4216922;28;20113;-52
2023/02/22 05:04:41;;;;;;;20.27;11.07;;;;;;;8.09;50.48;94595.22;4190145;28;20052;-53
2023/02/22 05:06:42;;;;;;;28.10;12.23;;;;;;;8.12;50.45;94593.09;4217793;28;20052;-52
2023/02/22 05:08:44;;;;;;;23.35;11.25;;;;;;;8.16;50.09;94596.25;4196860;28;20515;-53
2023/02/22 05:10:46;;;;;;;22.08;11.32;;;;;;;8.15;50.65;94595.44;4211279;28;20055;-52
2023/02/22 05:12:47;;;;;;;22.98;10.80;;;;;;;8.22;50.86;94600.88;4188616;28;20659;-54
2023/02/22 05:14:49;;;;;;;22.38;11.13;;;;;;;8.21;49.81;94600.03;4209258;28;20086;-51
2023/02/22 05:16:52;;;;;;;23.98;11.77;;;;;;;7.94;50.61;94607.91;4216915;28;20048;-54
2023/02/22 05:18:54;;;;;;;28.58;12.32;;;;;;;7.83;51.31;94605.47;4199330;28;20527;-55
2023/02/22 05:20:56;;;;;;;25.48;11.57;;;;;;;7.69;50.90;94610.22;4184842;28;20080;-51
2023/02/22 05:22:59;;;;;;;25.38;10.80;;;;;;;7.68;51.34;94607.72;4185664;28;20080;-57
2023/02/22 05:25:02;;;;;;;21.00;10.65;;;;;;;7.69;51.30;94615.41;4197319;28;20102;-54
2023/02/22 05:27:03;;;;;;;25.60;12.73;;;;;;;7.57;51.02;94619.16;4198409;28;20135;-55
2023/02/22 05:29:05;;;;;;;23.83;11.93;;;;;;;7.50;51.55;94618.91;4185056;28;20045;-55
2023/02/22 05:31:07;;;;;;;23.10;12.05;;;;;;;7.46;51.92;94621.94;4188429;28;20080;-60
2023/02/22 05:33:09;;;;;;;22.10;12.60;;;;;;;7.49;51.56;94627.72;4197569;28;21038;-58
2023/02/22 05:35:12;;;;;;;25.02;12.27;;;;;;;7.60;51.57;94629.31;4215559;28;20052;-60
2023/02/22 05:37:14;;;;;;;27.80;13.55;;;;;;;7.72;51.05;94627.34;4217620;28;20071;-58
2023/02/22 05:39:15;;;;;;;24.15;12.45;;;;;;;7.85;50.97;94634.84;4217737;28;20044;-52
2023/02/22 05:41:17;;;;;;;24.13;12.23;;;;;;;8.00;50.68;94643.84;4195991;28;20049;-56
2023/02/22 05:43:19;;;;;;;26.02;13.05;;;;;;;8.09;50.36;94636.94;4187336;28;20541;-53
2023/02/22 05:45:23;;;;;;;34.47;12.50;;;;;;;8.16;50.00;94644.03;4190912;28;20444;-51
2023/02/22 05:47:25;;;;;;;25.95;11.93;;;;;;;8.29;49.67;94643.69;4198550;28;20057;-57
2023/02/22 05:49:27;;;;;;;24.13;12.07;;;;;;;8.54;49.72;94642.19;4200378;28;20053;-56
2023/02/22 05:51:28;;;;;;;29.30;13.27;;;;;;;8.82;48.89;94639.53;4200182;28;20040;-54
2023/02/22 05:53:30;;;;;;;22.92;11.90;;;;;;;8.86;48.77;94638.22;4191029;28;20066;-56
2023/02/22 05:55:32;;;;;;;26.92;13.38;;;;;;;8.95;47.92;94644.38;4201416;28;20082;-55
2023/02/22 05:57:34;;;;;;;30.92;12.80;;;;;;;8.93;48.14;94649.75;4210936;28;20052;-58
2023/02/22 05:59:35;;;;;;;32.22;13.27;;;;;;;8.85;48.71;94643.63;4215562;28;20695;-54
2023/02/22 06:01:37;;;;;;;30.25;12.68;;;;;;;8.84;47.83;94645.44;4216951;28;20036;-56
2023/02/22 06:03:38;;;;;;;21.77;11.77;;;;;;;8.87;48.32;94645.13;4200542;28;20367;-54
2023/02/22 06:05:40;;;;;;;26.33;11.32;;;;;;;8.89;47.63;94645.78;4180958;28;20053;-54
2023/02/22 06:07:42;;;;;;;19.30;11.25;;;;;;;8.97;47.87;94652.84;4195457;28;20071;-57
2023/02/22 06:09:43;;;;;;;24.88;11.98;;;;;;;8.95;47.72;94655.63;4195140;28;20406;-54
2023/02/22 06:11:45;;;;;;;20.90;9.55;;;;;;;8.99;47.54;94650.91;4182239;28;20049;-55
2023/02/22 06:13:51;;;;;;;22.20;10.77;;;;;;;8.99;47.24;94662.22;4197460;28;20418;-55
2023/02/22 06:15:53;;;;;;;19.85;8.80;;;;;;;8.80;47.45;94664.97;4197250;28;20047;-57
2023/02/22 06:17:56;;;;;;;19.58;9.13;;;;;;;8.84;47.79;94661.09;4182447;28;20055;-60
2023/02/22 06:19:58;;;;;;;20.80;10.20;;;;;;;8.84;47.95;94661.09;4183073;28;20102;-60
2023/02/22 06:22:01;;;;;;;18.40;9.60;;;;;;;8.93;47.15;94654.97;4196441;28;20049;-59
2023/02/22 06:24:03;;;;;;;19.02;9.63;;;;;;;8.92;47.73;94650.69;4182960;28;20047;-59
2023/02/22 06:26:05;;;;;;;17.80;9.30;;;;;;;9.01;47.19;94641.97;4195088;28;20139;-60
2023/02/22 06:28:07;;;;;;;25.75;10.80;;;;;;;9.14;46.82;94651.19;4214623;28;20044;-60
2023/02/22 06:30:10;;;;;;;21.27;9.90;;;;;;;9.15;47.03;94652.88;4213897;28;20056;-60
2023/02/22 06:32:14;;;;;;;19.88;9.98;;;;;;;9.25;46.90;94651.00;4198770;28;20040;-60
2023/02/22 06:34:16;;;;;;;20.13;11.10;;;;;;;9.31;46.51;94649.53;4197267;28;20135;-59
2023/02/22 06:36:17;;;;;;;25.23;10.65;;;;;;;9.39;46.87;94655.66;4187581;28;20053;-60
2023/02/22 06:38:24;;;;;;;20.88;11.07;;;;;;;9.49;45.85;94652.13;4182590;28;20557;-59
2023/02/22 06:40:28;;;;;;;24.30;11.45;;;;;;;9.55;46.00;94654.09;4206901;28;20148;-58
2023/02/22 06:42:30;;;;;;;22.25;11.60;;;;;;;9.64;46.40;94642.75;4198531;28;20489;-59
2023/02/22 06:44:32;;;;;;;23.60;11.63;;;;;;;9.71;46.47;94651.59;4213959;28;20097;-59
2023/02/22 06:46:34;;;;;;;21.83;11.43;;;;;;;9.81;46.05;94649.72;4181724;28;20120;-56
2023/02/22 06:48:39;;;;;;;29.83;12.10;;;;;;;9.79;46.15;94654.28;4186207;28;20049;-57
2023/02/22 06:50:40;;;;;;;25.08;11.80;;;;;;;9.40;46.64;94651.25;4188250;28;20049;-53
2023/02/22 06:52:42;;;;;;;22.35;12.90;;;;;;;9.13;47.02;94655.63;4181179;28;20057;-55
2023/02/22 06:54:43;;;;;;;25.65;12.10;;;;;;;8.91;48.01;94658.72;4184116;28;20048;-56
2023/02/22 06:56:45;;;;;;;24.73;11.20;;;;;;;8.96;47.79;94654.66;4201536;28;20134;-55
2023/02/22 06:58:48;;;;;;;18.27;9.48;;;;;;;8.90;47.73;94657.88;4196177;28;20449;-52
2023/02/22 07:00:49;;;;;;;17.38;8.27;;;;;;;8.58;47.43;94660.97;4203612;28;20432;-51
2023/02/22 07:02:52;;;;;;;14.23;7.47;;;;;;;8.51;47.16;94659.94;4212333;28;20079;-55
2023/02/22 07:04:54;;;;;;;12.20;7.63;;;;;;;8.52;47.57;94657.19;4212831;28;20113;-57
2023/02/22 07:06:55;;;;;;;18.45;7.80;;;;;;;8.68;46.67;94655.72;4214147;28;20052;-55
2023/02/22 07:08:57;;;;;;;13.05;7.88;;;;;;;8.78;46.11;94659.06;4214358;28;20048;-55
2023/02/22 07:10:58;;;;;;;16.48;7.78;;;;;;;8.91;46.46;94650.88;4213316;28;20082;-57
2023/02/22 07:13:01;;;;;;;21.65;9.80;;;;;;;9.02;46.87;94641.00;4213328;28;20259;-57
2023/02/22 07:15:02;;;;;;;27.95;10.38;;;;;;;9.26;46.02;94657.03;4213434;28;20051;-55
2023/02/22 07:17:04;;;;;;;22.17;9.48;;;;;;;9.40;45.72;94654.69;4210110;28;20505;-65
2023/02/22 07:19:06;;;;;;;19.65;8.82;;;;;;;9.42;45.22;94654.50;4210308;28;20053;-57
2023/02/22 07:21:07;;;;;;;23.77;9.90;;;;;;;9.52;45.87;94664.88;4203614;28;20094;-56
2023/02/22 07:23:12;;;;;;;26.75;11.68;;;;;;;9.40;45.59;94659.09;4213247;28;20420;-56
2023/02/22 07:25:13;;;;;;;21.55;10.75;;;;;;;9.23;46.21;94668.63;4212130;28;20131;-54
2023/02/22 07:27:16;;;;;;;24.85;10.07;;;;;;;9.23;45.96;94669.44;4212810;28;20051;-57
2023/02/22 07:29:18;;;;;;;19.20;9.95;;;;;;;9.25;46.02;94664.06;4212742;28;20054;-56
2023/02/22 07:31:19;;;;;;;21.63;9.77;;;;;;;9.37;45.69;94660.19;4205461;28;20052;-53
2023/02/22 07:33:21;;;;;;;21.95;9.43;;;;;;;9.54;45.83;94660.31;4192615;28;20044;-55
2023/02/22 07:35:26;;;;;;;17.77;9.70;;;;;;;9.63;46.19;94660.22;4196932;28;20465;-55
2023/02/22 07:37:29;;;;;;;16.50;9.38;;;;;;;9.71;45.93;94659.44;4186527;28;20044;-54
2023/02/22 07:39:30;;;;;;;15.55;9.13;;;;;;;9.82;45.08;94659.19;4213523;28;20079;-60
2023/02/22 07:41:32;;;;;;;19.35;10.20;;;;;;;10.01;45.51;94654.72;4210452;28;20051;-55
2023/02/22 07:43:33;;;;;;;15.00;9.32;;;;;;;10.18;45.09;94651.19;4211038;28;20048;-53
2023/02/22 07:45:35;;;;;;;20.08;9.90;;;;;;;10.39;44.58;94650.81;4212594;28;20044;-54
2023/02/22 07:47:37;;;;;;;19.35;9.10;;;;;;;10.63;43.76;94649.22;4211513;28;20050;-56
2023/02/22 07:49:39;;;;;;;18.48;10.15;;;;;;;10.83;43.53;94641.88;4212066;28;20441;-58
2023/02/22 07:51:40;;;;;;;24.77;10.82;;;;;;;11.03;43.38;94645.00;4211566;28;20098;-56
2023/02/22 07:53:42;;;;;;;24.80;10.38;;;;;;;11.23;43.18;94645.53;4212482;28;20078;-53
2023/02/22 07:55:44;;;;;;;21.30;11.43;;;;;;;11.41;42.31;94648.78;4212344;28;20101;-58
2023/02/22 07:57:47;;;;;;;21.20;11.45;;;;;;;11.54;42.08;94637.78;4201657;28;20052;-56
2023/02/22 07:59:49;;;;;;;25.70;11.55;;;;;;;11.64;43.00;94640.25;4197601;28;20058;-56
2023/02/22 08:01:50;;;;;;;24.90;11.35;;;;;;;11.74;42.25;94630.34;4212009;28;20584;-59
2023/02/22 08:03:52;;;;;;;27.30;11.73;;;;;;;11.72;41.73;94637.56;4212133;28;20048;-54
2023/02/22 08:05:56;;;;;;;20.85;11.15;;;;;;;11.78;41.61;94631.66;4212294;28;20052;-56
2023/02/22 08:07:57;;;;;;;20.48;11.18;;;;;;;11.80;41.63;94629.69;4213050;28;20524;-56
2023/02/22 08:09:59;;;;;;;22.95;11.82;;;;;;;11.92;41.43;94632.00;4213089;28;20074;-54
2023/02/22 08:12:01;;;;;;;20.73;11.38;;;;;;;11.73;41.21;94633.97;4201855;28;20892;-57
2023/02/22 08:14:02;;;;;;;26.63;13.35;;;;;;;11.58;41.62;94636.47;4193096;28;20067;-55
2023/02/22 08:16:04;;;;;;;15.90;10.90;;;;;;;11.58;41.63;94635.66;4183426;28;20052;-56
2023/02/22 08:18:08;;;;;;;20.20;10.93;;;;;;;11.64;41.49;94630.56;4193741;28;20607;-54
2023/02/22 08:20:10;;;;;;;21.55;11.25;;;;;;;11.64;41.60;94627.13;4196693;28;20510;-53
2023/02/22 08:22:11;;;;;;;25.38;11.20;;;;;;;11.69;41.96;94630.06;4196852;28;20076;-56
2023/02/22 08:24:13;;;;;;;20.75;10.48;;;;;;;11.64;42.04;94630.56;4181356;28;20045;-56
2023/02/22 08:26:17;;;;;;;20.05;10.40;;;;;;;11.83;42.08;94623.28;4181955;28;20057;-58
2023/02/22 08:28:22;;;;;;;23.60;10.60;;;;;;;12.10;41.93;94622.06;4193774;28;20044;-58
2023/02/22 08:30:24;;;;;;;35.00;14.10;;;;;;;12.29;41.03;94631.38;4184264;28;20048;-58
2023/02/22 08:32:26;;;;;;;25.45;12.63;;;;;;;12.36;41.29;94624.44;4202113;28;20041;-55
2023/02/22 08:34:28;;;;;;;30.15;11.38;;;;;;;12.45;40.99;94622.56;4186147;28;20515;-55
2023/02/22 08:36:31;;;;;;;23.45;12.85;;;;;;;12.66;40.67;94620.16;4190531;28;20145;-58
2023/02/22 08:38:33;;;;;;;25.40;13.02;;;;;;;12.64;40.63;94623.94;4211882;28;20048;-56
2023/02/22 08:40:36;;;;;;;20.75;12.50;;;;;;;12.76;40.36;94619.13;4193537;28;20045;-59
2023/02/22 08:42:37;;;;;;;33.78;15.88;;;;;;;12.85;40.34;94621.53;4198401;28;20093;-56
2023/02/22 08:44:39;;;;;;;20.60;10.98;;;;;;;12.80;39.93;94617.75;4212389;28;20056;-55
2023/02/22 08:46:41;;;;;;;20.17;11.00;;;;;;;12.68;40.63;94620.81;4210553;28;20040;-56
2023/02/22 08:48:52;;;;;;;19.77;10.85;;;;;;;12.94;40.25;94618.84;4187518;28;20077;-58
2023/02/22 08:50:54;;;;;;;20.60;11.07;;;;;;;13.27;39.95;94616.75;4202928;28;20058;-56
2023/02/22 08:53:00;;;;;;;23.92;12.20;;;;;;;13.57;39.28;94616.84;4197610;28;20117;-57
2023/02/22 08:55:01;;;;;;;20.00;11.13;;;;;;;13.67;39.09;94614.78;4202101;28;20135;-59
2023/02/22 08:57:03;;;;;;;20.40;10.48;;;;;;;13.81;39.15;94615.78;4211969;28;20052;-61
2023/02/22 08:59:05;;;;;;;22.48;10.10;;;;;;;14.03;39.01;94620.16;4210367;28;20091;-60
2023/02/22 09:01:06;;;;;;;19.02;9.85;;;;;;;13.92;38.91;94612.72;4197860;28;20517;-56
2023/02/22 09:03:12;;;;;;;22.83;9.10;;;;;;;14.03;38.84;94616.72;4199276;28;20071;-59
2023/02/22 09:05:15;;;;;;;18.23;9.25;;;;;;;14.09;38.56;94616.00;4213083;28;20136;-56
2023/02/22 09:07:17;;;;;;;;;;;;;;;13.98;38.77;94614.63;4213286;28;20075;-60
2023/02/22 09:09:20;;;;;;;18.75;8.63;;;;;;;13.78;39.30;94616.97;4196966;28;19920;-57
2023/02/22 09:11:22;;;;;;;16.97;9.80;;;;;;;13.88;39.37;94614.88;4195917;28;20497;-61
2023/02/22 09:13:23;;;;;;;17.40;10.00;;;;;;;14.04;38.85;94610.44;4186787;28;20981;-59
2023/02/22 09:15:25;;;;;;;16.92;9.20;;;;;;;14.33;38.44;94610.41;4192343;28;20109;-60
2023/02/22 09:17:27;;;;;;;14.00;8.20;;;;;;;14.11;38.46;94611.34;4191691;28;20053;-57
2023/02/22 09:19:29;;;;;;;13.23;7.95;;;;;;;14.18;38.70;94606.19;4179005;28;20098;-60
2023/02/22 09:21:30;;;;;;;13.02;8.13;;;;;;;14.39;38.39;94606.22;4188212;28;20053;-59
2023/02/22 09:23:33;;;;;;;12.32;7.60;;;;;;;14.16;38.78;94608.97;4182700;28;20068;-58
2023/02/22 09:25:35;;;;;;;10.23;5.90;;;;;;;14.21;39.05;94598.69;4213195;28;20048;-63
2023/02/22 09:27:37;;;;;;;7.88;4.65;;;;;;;14.35;38.51;94615.50;4211862;28;20093;-61
2023/02/22 09:29:39;;;;;;;8.15;4.88;;;;;;;14.56;38.20;94598.94;4212440;28;20052;-62
2023/02/22 09:31:41;;;;;;;12.38;4.93;;;;;;;14.09;39.02;94600.19;4211404;28;20102;-61
2023/02/22 09:33:43;;;;;;;6.45;4.00;;;;;;;14.44;38.49;94595.13;4195019;28;20056;-62
2023/02/22 09:35:48;;;;;;;8.52;5.05;;;;;;;14.42;37.60;94592.69;4189219;28;20048;-57
2023/02/22 09:37:50;;;;;;;7.95;4.30;;;;;;;14.31;37.95;94582.63;4189023;28;20059;-61